Time;durP1;ratioP1;P1;durP2;ratioP2;P2;SDS_P1;SDS_P2;PMS_P1;PMS_P2;Temp;Humidity;BMP_temperature;BMP_pressure;BME280_temperature;BME280_humidity;BME280_pressure;Samples;Min_cycle;Max_cycle;Signal;HPM_P1;HPM_P2
2021/01/08 10:23:30;;;;;;;24.70;13.82;;;6.60;75.40;;;;;;4981876;28;20175;-92
2021/01/08 10:26:22;;;;;;;28.03;12.40;;;6.80;75.50;;;;;;4995980;28;20173;-91
2021/01/08 10:28:49;;;;;;;21.75;12.80;;;6.80;75.00;;;;;;4972004;28;20480;-94
2021/01/08 10:37:27;;;;;;;19.67;12.35;;;6.90;75.40;;;;;;4974098;29;20167;-94
2021/01/08 10:39:53;;;;;;;23.57;11.77;;;7.00;75.00;;;;;;4977348;28;20197;-94
2021/01/08 10:42:18;;;;;;;24.50;13.10;;;7.10;74.80;;;;;;4975779;29;20794;-93
2021/01/08 10:44:44;;;;;;;23.33;11.60;;;7.10;74.70;;;;;;4977749;28;20472;-93
2021/01/08 10:47:10;;;;;;;23.10;12.63;;;6.90;74.80;;;;;;4975300;29;20420;-93
2021/01/08 10:49:36;;;;;;;22.50;13.63;;;7.10;75.30;;;;;;4979906;28;20199;-94
2021/01/08 10:52:07;;;;;;;21.58;12.85;;;7.20;75.00;;;;;;4980506;28;20404;-93
2021/01/08 10:54:33;;;;;;;21.70;11.50;;;7.20;75.00;;;;;;4981541;28;20177;-93
2021/01/08 10:56:59;;;;;;;19.95;11.88;;;7.30;74.50;;;;;;4981200;28;20173;-93
2021/01/08 10:59:25;;;;;;;22.88;13.35;;;7.30;74.40;;;;;;4981076;28;20216;-95
2021/01/08 11:01:51;;;;;;;24.63;12.40;;;7.40;73.90;;;;;;4980979;28;20173;-94
2021/01/08 11:04:17;;;;;;;24.33;13.00;;;7.40;74.40;;;;;;4981137;28;20472;-94
2021/01/08 11:06:42;;;;;;;22.70;13.37;;;7.30;74.50;;;;;;4996933;28;20450;-94
2021/01/08 11:09:08;;;;;;;20.77;10.97;;;7.40;74.70;;;;;;4980986;28;20447;-94
2021/01/08 11:11:35;;;;;;;17.52;9.82;;;7.50;74.40;;;;;;4981220;28;20177;-93
2021/01/08 11:14:01;;;;;;;25.63;11.32;;;7.60;74.10;;;;;;4981240;28;20169;-93
2021/01/08 11:16:31;;;;;;;23.27;11.70;;;7.70;74.00;;;;;;4981102;28;20219;-94
2021/01/08 11:18:56;;;;;;;25.38;12.02;;;7.70;73.50;;;;;;4981040;28;20188;-93
2021/01/08 11:21:23;;;;;;;18.00;10.70;;;7.70;73.60;;;;;;4981235;28;20184;-93
2021/01/08 11:23:50;;;;;;;19.38;10.93;;;7.50;74.20;;;;;;4980929;28;20268;-93
2021/01/08 11:26:29;;;;;;;19.73;10.60;;;7.80;74.30;;;;;;4981064;28;20200;-94
2021/01/08 11:28:56;;;;;;;22.52;10.50;;;7.80;73.50;;;;;;4980856;28;20180;-94
2021/01/08 11:31:38;;;;;;;18.25;10.15;;;7.80;73.60;;;;;;4980938;28;20184;-94
2021/01/08 11:34:05;;;;;;;20.45;10.82;;;7.70;74.00;;;;;;4980945;28;20187;-94
2021/01/08 11:36:31;;;;;;;16.60;9.73;;;7.70;74.30;;;;;;4980840;28;20260;-94
2021/01/08 11:38:57;;;;;;;24.40;10.70;;;7.80;74.40;;;;;;4980423;28;20183;-93
2021/01/08 11:41:23;;;;;;;19.92;10.90;;;7.70;74.10;;;;;;4979730;28;20169;-93
2021/01/08 11:43:49;;;;;;;17.05;11.10;;;7.80;74.50;;;;;;4980555;28;20271;-94
2021/01/08 11:46:20;;;;;;;21.08;11.07;;;7.90;74.10;;;;;;4980313;28;20256;-94
2021/01/08 11:48:46;;;;;;;18.25;11.52;;;8.10;74.00;;;;;;4980306;28;20232;-94
2021/01/08 11:51:13;;;;;;;19.80;11.52;;;8.10;73.70;;;;;;4978217;28;20199;-94
2021/01/08 11:53:46;;;;;;;17.63;10.63;;;7.90;73.90;;;;;;4978965;28;20168;-93
2021/01/08 11:56:13;;;;;;;27.92;14.10;;;7.90;73.90;;;;;;4977262;28;20194;-95
2021/01/08 11:58:39;;;;;;;22.48;11.15;;;8.00;73.70;;;;;;4977048;28;20177;-94
2021/01/08 12:01:06;;;;;;;18.20;12.75;;;7.90;73.90;;;;;;4975731;28;20181;-93
2021/01/08 12:03:32;;;;;;;22.92;12.77;;;7.80;73.70;;;;;;4978197;28;20209;-94
2021/01/08 12:05:59;;;;;;;17.75;10.90;;;7.90;74.20;;;;;;4977318;28;20169;-94
2021/01/08 12:08:25;;;;;;;24.60;12.35;;;8.10;74.00;;;;;;4976712;28;20185;-94
2021/01/08 12:10:51;;;;;;;22.47;12.40;;;8.10;74.60;;;;;;4977296;28;20289;-95
2021/01/08 12:13:18;;;;;;;25.45;12.95;;;8.10;73.50;;;;;;4974988;28;20644;-93
2021/01/08 12:15:44;;;;;;;23.58;12.85;;;8.00;73.50;;;;;;4980489;28;20199;-93
2021/01/08 12:18:10;;;;;;;27.77;13.80;;;7.90;73.50;;;;;;4989653;28;20641;-91
2021/01/08 12:20:36;;;;;;;24.40;14.35;;;8.00;73.70;;;;;;4980140;28;20303;-93
2021/01/08 12:23:05;;;;;;;23.20;13.67;;;8.20;73.70;;;;;;4979475;28;20215;-92
2021/01/08 12:25:39;;;;;;;28.58;13.35;;;8.20;73.30;;;;;;4963289;28;20535;-91
2021/01/08 12:28:10;;;;;;;29.13;13.55;;;8.30;73.10;;;;;;4980689;28;20172;-93
2021/01/08 12:30:36;;;;;;;22.00;12.70;;;8.10;72.70;;;;;;4983043;28;20204;-94
2021/01/08 12:33:03;;;;;;;23.20;13.45;;;8.10;73.20;;;;;;4984249;28;20207;-92
2021/01/08 12:35:29;;;;;;;22.77;12.30;;;8.00;73.40;;;;;;4985059;28;20234;-93
2021/01/08 12:37:56;;;;;;;20.95;13.50;;;7.70;74.20;;;;;;4980764;28;20191;-91
2021/01/08 12:40:23;;;;;;;28.27;14.68;;;7.90;74.60;;;;;;4985166;28;20214;-92
2021/01/08 12:42:53;;;;;;;19.25;12.10;;;7.90;74.70;;;;;;4980385;28;20179;-91
2021/01/08 12:45:21;;;;;;;22.27;13.38;;;8.10;74.30;;;;;;4981646;28;20196;-91
2021/01/08 12:47:47;;;;;;;21.85;11.82;;;8.30;74.00;;;;;;4986052;28;20200;-90
2021/01/08 12:50:14;;;;;;;19.67;11.90;;;8.30;73.10;;;;;;4992769;28;20196;-90
2021/01/08 12:52:40;;;;;;;19.13;12.60;;;8.40;73.10;;;;;;4992346;28;20176;-92
2021/01/08 12:55:07;;;;;;;23.45;12.65;;;8.50;73.00;;;;;;4994230;28;20191;-91
2021/01/08 12:57:33;;;;;;;20.23;11.45;;;8.10;73.10;;;;;;4992796;28;20243;-92
2021/01/08 12:59:59;;;;;;;19.57;12.33;;;8.10;73.80;;;;;;4989162;28;20196;-91
2021/01/08 13:02:25;;;;;;;19.17;11.88;;;8.10;73.70;;;;;;4987974;28;20415;-92
2021/01/08 13:04:50;;;;;;;23.20;12.13;;;8.30;73.80;;;;;;4989362;28;20212;-91
2021/01/08 13:07:17;;;;;;;21.30;11.47;;;8.50;73.20;;;;;;4986659;28;20419;-92
2021/01/08 13:09:43;;;;;;;17.27;10.57;;;8.60;72.50;;;;;;4987403;28;20235;-92
2021/01/08 13:12:09;;;;;;;19.00;11.70;;;8.50;72.40;;;;;;4987233;28;20624;-93
2021/01/08 13:14:35;;;;;;;21.55;12.43;;;8.40;72.20;;;;;;4976260;28;20816;-93
2021/01/08 13:17:00;;;;;;;16.40;10.90;;;8.20;72.50;;;;;;4958348;28;20216;-91
2021/01/08 13:19:26;;;;;;;22.87;11.47;;;8.10;73.00;;;;;;4959249;28;20232;-92
2021/01/08 13:21:53;;;;;;;22.17;10.73;;;8.10;73.40;;;;;;4955882;29;20797;-91
2021/01/08 13:24:20;;;;;;;25.58;14.60;;;8.00;73.80;;;;;;4958133;28;20987;-90
2021/01/08 13:26:47;;;;;;;22.50;11.63;;;7.70;74.20;;;;;;4956336;28;20181;-90
2021/01/08 13:29:13;;;;;;;27.88;15.07;;;7.60;74.90;;;;;;4961295;28;20207;-90
2021/01/08 13:31:41;;;;;;;15.98;10.13;;;7.40;75.80;;;;;;4957076;28;20181;-91
2021/01/08 13:34:07;;;;;;;53.05;21.58;;;7.60;75.40;;;;;;4959332;28;20192;-92
2021/01/08 13:36:35;;;;;;;28.13;13.60;;;7.60;75.30;;;;;;4957593;28;20184;-91
2021/01/08 13:39:05;;;;;;;45.85;17.73;;;7.70;75.00;;;;;;4956358;29;20491;-92
2021/01/08 13:41:31;;;;;;;49.58;20.55;;;8.00;74.10;;;;;;4958718;29;20219;-91
2021/01/08 13:43:57;;;;;;;29.43;14.60;;;7.50;75.10;;;;;;4966423;28;20208;-90
2021/01/08 13:46:23;;;;;;;22.20;11.57;;;7.50;75.30;;;;;;4958563;29;20428;-90
2021/01/08 13:48:49;;;;;;;17.27;10.30;;;7.60;75.10;;;;;;4956529;28;20648;-90
2021/01/08 13:51:33;;;;;;;25.55;15.07;;;7.60;75.30;;;;;;4967712;29;20455;-91
2021/01/08 13:54:05;;;;;;;19.63;12.13;;;7.70;75.30;;;;;;4957390;29;20196;-92
2021/01/08 13:56:31;;;;;;;65.40;24.95;;;7.70;74.90;;;;;;4964758;29;20521;-91
2021/01/08 13:58:56;;;;;;;39.15;18.13;;;7.60;75.40;;;;;;4959085;28;20327;-90
2021/01/08 14:01:22;;;;;;;25.73;14.50;;;7.60;75.10;;;;;;4960931;29;20553;-92
2021/01/08 14:03:48;;;;;;;36.83;17.87;;;7.40;75.50;;;;;;4958473;29;20550;-91
2021/01/08 14:06:26;;;;;;;22.67;12.45;;;7.80;75.00;;;;;;4958846;29;20424;-91
2021/01/08 14:08:53;;;;;;;14.77;9.73;;;7.80;74.60;;;;;;4967493;28;20177;-91
2021/01/08 14:11:26;;;;;;;17.48;9.88;;;7.60;75.30;;;;;;4975180;28;20264;-92
2021/01/08 14:13:53;;;;;;;14.25;9.07;;;7.30;75.00;;;;;;4977012;29;20211;-92
2021/01/08 14:16:20;;;;;;;16.30;9.93;;;7.40;76.00;;;;;;4989713;28;20195;-90
2021/01/08 14:18:46;;;;;;;15.48;9.45;;;7.50;75.40;;;;;;4989733;28;20199;-91
2021/01/08 14:21:12;;;;;;;14.88;8.57;;;7.70;75.30;;;;;;4985773;28;20243;-91
2021/01/08 14:23:38;;;;;;;12.15;8.63;;;7.70;75.20;;;;;;4968171;29;20224;-91
2021/01/08 14:26:04;;;;;;;15.82;8.88;;;7.70;75.30;;;;;;4963849;28;20181;-91
2021/01/08 14:28:30;;;;;;;14.98;8.45;;;7.80;74.60;;;;;;4969066;28;20244;-92
2021/01/08 14:30:56;;;;;;;12.70;7.85;;;7.90;74.60;;;;;;4980282;28;20210;-93
2021/01/08 14:33:21;;;;;;;12.07;6.93;;;7.70;74.70;;;;;;4981964;28;20180;-92
2021/01/08 14:35:47;;;;;;;10.30;6.00;;;7.30;75.10;;;;;;4982190;28;20232;-89
2021/01/08 14:38:13;;;;;;;12.13;7.23;;;7.20;76.10;;;;;;4975983;28;20432;-90
2021/01/08 14:40:39;;;;;;;14.25;7.80;;;7.30;76.40;;;;;;4969701;28;20516;-89
2021/01/08 14:43:05;;;;;;;15.47;8.27;;;7.40;77.00;;;;;;4965627;28;20230;-90
2021/01/08 14:45:31;;;;;;;16.70;7.70;;;7.80;76.70;;;;;;4964125;28;20216;-91
2021/01/08 14:47:56;;;;;;;10.30;7.20;;;8.10;75.60;;;;;;4960829;28;20263;-91
2021/01/08 14:50:23;;;;;;;11.10;7.77;;;8.40;74.70;;;;;;4958108;28;20971;-91
2021/01/08 14:52:50;;;;;;;9.38;6.63;;;8.60;73.70;;;;;;4958936;29;20188;-91
2021/01/08 14:55:15;;;;;;;9.13;6.32;;;8.60;73.20;;;;;;4950332;29;20272;-91
2021/01/08 14:57:41;;;;;;;9.30;5.70;;;8.40;73.00;;;;;;4941394;29;20228;-91
2021/01/08 15:00:07;;;;;;;11.93;5.43;;;8.50;72.60;;;;;;4939158;29;20645;-92
2021/01/08 15:02:33;;;;;;;9.13;5.50;;;8.50;71.90;;;;;;4941983;29;20417;-92
2021/01/08 15:04:59;;;;;;;9.47;5.90;;;8.60;71.40;;;;;;4942367;29;20291;-92
2021/01/08 15:07:25;;;;;;;8.37;5.70;;;8.70;71.40;;;;;;4943177;29;20248;-92
2021/01/08 15:09:51;;;;;;;7.93;5.95;;;8.60;70.90;;;;;;4961554;29;20472;-92
2021/01/08 15:12:18;;;;;;;12.83;7.07;;;8.50;71.00;;;;;;4975133;28;20169;-91
2021/01/08 15:14:44;;;;;;;8.98;5.43;;;8.00;71.60;;;;;;4986497;28;20473;-94
2021/01/08 15:17:10;;;;;;;12.17;5.20;;;7.90;72.30;;;;;;4978305;28;20173;-93
2021/01/08 15:19:35;;;;;;;8.63;6.93;;;7.60;72.30;;;;;;4979804;28;20275;-93
2021/01/08 15:22:01;;;;;;;12.93;6.90;;;7.30;73.70;;;;;;4980190;28;20434;-93
2021/01/08 15:24:27;;;;;;;8.97;5.73;;;7.40;74.10;;;;;;4979256;28;20212;-92
2021/01/08 15:26:53;;;;;;;9.13;6.03;;;7.50;74.10;;;;;;4977950;28;20456;-92
2021/01/08 15:29:19;;;;;;;10.57;6.53;;;7.70;74.40;;;;;;4970603;28;20444;-89
2021/01/08 15:31:44;;;;;;;11.70;6.30;;;7.60;74.20;;;;;;4961827;28;20459;-91
2021/01/08 15:34:10;;;;;;;11.87;6.77;;;7.90;74.00;;;;;;4968569;28;20432;-93
2021/01/08 15:36:36;;;;;;;7.23;5.03;;;8.00;72.80;;;;;;4977000;28;20254;-91
2021/01/08 15:39:03;;;;;;;7.17;6.27;;;8.00;72.40;;;;;;4985073;28;20451;-90
2021/01/08 15:41:29;;;;;;;7.13;5.65;;;7.70;71.90;;;;;;4989576;28;20454;-91
2021/01/08 15:43:54;;;;;;;6.70;4.73;;;7.70;72.40;;;;;;4987628;28;20216;-91
2021/01/08 15:46:20;;;;;;;8.27;4.93;;;7.80;72.20;;;;;;4990343;28;20643;-91
2021/01/08 15:48:52;;;;;;;7.38;4.70;;;7.80;73.00;;;;;;4993454;28;20423;-92
2021/01/08 15:51:26;;;;;;;9.63;5.38;;;7.80;73.00;;;;;;4990689;28;20195;-90
2021/01/08 15:53:52;;;;;;;6.70;5.43;;;7.90;72.70;;;;;;4982226;28;20176;-91
2021/01/08 15:56:17;;;;;;;8.70;5.90;;;7.60;73.30;;;;;;4988080;28;20184;-91
2021/01/08 15:58:44;;;;;;;8.77;5.67;;;7.70;73.60;;;;;;4982123;28;20183;-91
2021/01/08 16:01:09;;;;;;;8.07;5.07;;;7.40;73.30;;;;;;4986916;28;20412;-90
2021/01/08 16:03:35;;;;;;;8.80;5.20;;;7.40;73.40;;;;;;4992084;28;20276;-89
2021/01/08 16:06:01;;;;;;;7.43;5.00;;;7.30;73.70;;;;;;4996302;28;20192;-89
2021/01/08 16:08:27;;;;;;;6.30;4.40;;;6.90;74.20;;;;;;4998315;28;20176;-91
2021/01/08 16:10:53;;;;;;;6.40;5.00;;;7.10;74.40;;;;;;4995112;28;20265;-91
2021/01/08 16:13:19;;;;;;;8.02;5.40;;;7.40;74.00;;;;;;4988789;28;20212;-90
2021/01/08 16:15:49;;;;;;;5.90;4.90;;;7.40;73.60;;;;;;4972798;28;20188;-90
2021/01/08 16:18:16;;;;;;;5.78;4.70;;;7.40;73.50;;;;;;4974764;28;20184;-91
2021/01/08 16:24:04;;;;;;;7.10;5.43;;;6.70;75.40;;;;;;4980245;28;20219;-90
2021/01/08 16:26:31;;;;;;;6.13;4.32;;;7.10;75.50;;;;;;4975686;28;20209;-91
2021/01/08 16:28:57;;;;;;;10.35;6.15;;;7.20;74.70;;;;;;4975129;29;20224;-91
2021/01/08 16:31:23;;;;;;;12.45;6.70;;;7.20;74.20;;;;;;4972825;29;20227;-90
2021/01/08 16:33:49;;;;;;;15.00;6.93;;;7.20;74.50;;;;;;4976962;28;20181;-90
2021/01/08 16:36:15;;;;;;;10.40;6.77;;;7.10;75.00;;;;;;4978767;28;20200;-90
2021/01/08 16:38:40;;;;;;;11.00;5.40;;;6.80;75.10;;;;;;4979487;28;20447;-91
2021/01/08 16:41:06;;;;;;;9.03;7.60;;;6.90;74.90;;;;;;4979146;28;20196;-91
2021/01/08 16:43:32;;;;;;;12.90;7.83;;;7.20;74.80;;;;;;4973551;28;20207;-90
2021/01/08 16:45:58;;;;;;;7.67;6.23;;;7.20;74.30;;;;;;4975466;28;20217;-90
2021/01/08 16:48:23;;;;;;;10.40;6.37;;;7.10;74.40;;;;;;4977274;28;20231;-92
2021/01/08 16:50:53;;;;;;;5.90;5.30;;;7.10;74.00;;;;;;4975685;28;20215;-90
2021/01/08 16:53:19;;;;;;;9.95;6.63;;;7.20;73.80;;;;;;4975190;29;20419;-92
2021/01/08 16:55:45;;;;;;;15.70;8.60;;;7.20;74.00;;;;;;4973846;29;20216;-91
2021/01/08 16:58:11;;;;;;;20.43;9.00;;;7.20;74.10;;;;;;4976585;29;20191;-91
2021/01/08 17:00:38;;;;;;;10.15;7.45;;;7.20;74.30;;;;;;4977281;28;20196;-92
2021/01/08 17:03:04;;;;;;;10.45;7.72;;;7.20;74.00;;;;;;4976100;29;20271;-91
2021/01/08 17:05:30;;;;;;;9.90;7.40;;;7.30;74.10;;;;;;4991766;28;20251;-91
2021/01/08 17:07:56;;;;;;;11.43;7.73;;;7.40;74.20;;;;;;4976115;28;20184;-91
2021/01/08 17:10:22;;;;;;;17.97;9.70;;;7.40;73.70;;;;;;4974244;28;20204;-91
2021/01/08 17:12:48;;;;;;;14.50;8.70;;;7.50;73.90;;;;;;4973323;28;20486;-90
2021/01/08 17:15:13;;;;;;;12.37;7.20;;;7.50;73.20;;;;;;4993258;28;20188;-91
2021/01/08 17:17:39;;;;;;;10.70;7.47;;;7.40;72.90;;;;;;4990132;28;20195;-90
2021/01/08 17:20:06;;;;;;;9.97;7.03;;;7.40;73.10;;;;;;4992132;28;20470;-90
2021/01/08 17:22:32;;;;;;;10.43;8.23;;;7.40;73.70;;;;;;4987795;28;20423;-90
2021/01/08 17:24:58;;;;;;;17.13;8.20;;;7.40;73.60;;;;;;4990557;28;20213;-91
2021/01/08 17:27:24;;;;;;;12.00;7.20;;;7.30;74.10;;;;;;4986620;28;20431;-91
2021/01/08 17:29:50;;;;;;;14.70;8.48;;;7.40;74.20;;;;;;4988906;28;20742;-89
2021/01/08 17:32:15;;;;;;;13.47;9.00;;;7.50;73.80;;;;;;4991855;28;20180;-90
2021/01/08 17:34:41;;;;;;;12.87;8.13;;;7.40;73.30;;;;;;4984648;28;20963;-90
2021/01/08 17:37:08;;;;;;;21.20;10.65;;;7.30;72.90;;;;;;4969400;28;20420;-89
2021/01/08 17:39:34;;;;;;;24.65;12.43;;;7.30;73.00;;;;;;4970631;28;20235;-90
2021/01/08 17:41:59;;;;;;;16.70;11.50;;;7.30;73.00;;;;;;4968871;29;20180;-91
2021/01/08 17:44:25;;;;;;;27.80;13.30;;;7.40;73.80;;;;;;4964261;28;20478;-91
2021/01/08 17:46:53;;;;;;;23.65;13.00;;;7.50;73.10;;;;;;4971540;28;20500;-93
2021/01/08 17:49:19;;;;;;;23.73;11.27;;;7.40;73.10;;;;;;4959103;29;20300;-88
2021/01/08 17:51:45;;;;;;;15.52;9.15;;;7.40;72.80;;;;;;4967734;28;20211;-89
2021/01/08 17:54:11;;;;;;;14.40;9.15;;;7.30;72.00;;;;;;4980478;28;20192;-90
2021/01/08 17:56:37;;;;;;;18.83;9.37;;;7.30;71.90;;;;;;5000811;28;20262;-90
2021/01/08 18:05:30;;;;;;;18.00;10.50;;;7.20;72.30;;;;;;5003514;28;20291;-91
2021/01/08 18:17:35;;;;;;;16.50;11.50;;;6.90;73.20;;;;;;5058914;23;20223;-87
2021/01/08 18:23:05;;;;;;;18.42;10.60;;;7.00;73.80;;;;;;4983082;28;20176;-86
2021/01/08 18:25:32;;;;;;;22.55;11.38;;;6.90;73.80;;;;;;4981879;28;20207;-88
